Details for SAS (Scandinavian Airlines) at EKCH




Go Back


Latest METAR
Local Time

EKCH 240720Z 05003KT CAVOK 18/10 Q1029 NOSIG

24/05/2018, 09:46:24

Description
Results
SAS (Scandinavian Airlines) Logo
Number of Pilots based at EKCH
0 Pilots Based here
Number of SAS (Scandinavian Airlines) Flights Departed from EKCH
50 Flights Departed
Number of SAS (Scandinavian Airlines) Flights Arrived at EKCH
45 Flights Arrived
Number of SAS (Scandinavian Airlines) Schedules Departing from EKCH
309 Schedules
Number of SAS (Scandinavian Airlines) Schedules Arriving at EKCH
303 Schedules
Number of SAS (Scandinavian Airlines) Schedules Departing from EKCH availible today
184 Schedules Today
Number of SAS (Scandinavian Airlines) Schedules Arriving at EKCH availible today
182 Schedules Today
Average Landing Rate at EKCH
-224 fpm
SAS (Scandinavian Airlines) Average Landing Rate at EKCH
-222 fpm
Total Fuel Purchased at EKCH by SAS (Scandinavian Airlines)
223,002.33 kgs / 491,630.94 lbs

Pilots Based at EKCH


Pilot ID
Pilot Name
Pilot Rank
No. of Flights
No. of Flying Hours
There are no pilots assigned to this hub!   Will you be the first?
Content